Time,TemperatureF,DewpointF,PressureIn,WindDirection,WindDirectionDegrees,WindSpeedMPH,WindSpeedGustMPH,Humidity,HourlyPrecipIn,Conditions,Clouds,dailyrainin,SolarRadiationWatts/m^2,SoftwareType,DateUTC
2013-02-15 00:01:00,50.0,28.0,30.26,North,352,25.0,41.0,43,0.00,,,0.00,0.000000,,2013-02-15 08:01:00,
2013-02-15 00:11:00,50.0,28.0,30.26,North,352,25.0,41.0,43,0.00,,,0.00,0.000000,,2013-02-15 08:11:00,
2013-02-15 00:42:00,48.0,28.0,30.26,NNW,346,19.0,30.0,46,0.00,,,0.00,0.000000,,2013-02-15 08:42:00,
2013-02-15 00:53:00,48.0,28.0,30.26,NNW,346,19.0,30.0,46,0.00,,,0.00,0.000000,,2013-02-15 08:53:00,
2013-02-15 01:01:00,48.0,28.0,30.26,NNW,346,19.0,30.0,46,0.00,,,0.00,0.000000,,2013-02-15 09:01:00,
2013-02-15 01:12:00,48.0,28.0,30.26,NNW,346,19.0,30.0,46,0.00,,,0.00,0.000000,,2013-02-15 09:12:00,
2013-02-15 01:42:00,48.0,30.0,30.26,NNW,344,22.0,31.0,49,0.00,,,0.00,0.000000,,2013-02-15 09:42:00,
2013-02-15 01:52:00,48.0,30.0,30.26,NNW,344,22.0,31.0,49,0.00,,,0.00,0.000000,,2013-02-15 09:52:00,
2013-02-15 02:01:00,48.0,30.0,30.26,NNW,344,22.0,31.0,49,0.00,,,0.00,0.000000,,2013-02-15 10:01:00,
2013-02-15 02:11:00,48.0,30.0,30.26,NNW,344,22.0,31.0,49,0.00,,,0.00,0.000000,,2013-02-15 10:11:00,
2013-02-15 02:42:00,55.0,26.0,30.26,NW,306,7.0,33.0,33,0.00,,,0.00,0.000000,,2013-02-15 10:42:00,
2013-02-15 02:52:00,55.0,26.0,30.26,NW,306,7.0,33.0,33,0.00,,,0.00,0.000000,,2013-02-15 10:52:00,
2013-02-15 03:01:00,55.0,26.0,30.26,NW,306,7.0,33.0,33,0.00,,,0.00,0.000000,,2013-02-15 11:01:00,
2013-02-15 03:42:00,51.0,34.0,30.25,ENE,74,4.0,13.0,51,0.00,,,0.00,0.000000,,2013-02-15 11:42:00,
2013-02-15 03:52:00,51.0,34.0,30.25,ENE,74,4.0,13.0,51,0.00,,,0.00,0.000000,,2013-02-15 11:52:00,
2013-02-15 04:01:00,51.0,34.0,30.25,ENE,74,4.0,13.0,51,0.00,,,0.00,0.000000,,2013-02-15 12:01:00,
2013-02-15 04:11:00,51.0,34.0,30.25,ENE,74,4.0,13.0,51,0.00,,,0.00,0.000000,,2013-02-15 12:11:00,
2013-02-15 04:42:00,54.0,22.0,30.25,NNW,338,4.0,14.0,28,0.00,,,0.00,0.000000,,2013-02-15 12:42:00,
2013-02-15 04:52:00,54.0,22.0,30.25,NNW,338,4.0,14.0,28,0.00,,,0.00,0.000000,,2013-02-15 12:52:00,
2013-02-15 05:02:00,54.0,22.0,30.25,NNW,338,4.0,14.0,28,0.00,,,0.00,0.000000,,2013-02-15 13:02:00,
2013-02-15 05:11:00,54.0,22.0,30.25,NNW,338,4.0,14.0,28,0.00,,,0.00,0.000000,,2013-02-15 13:11:00,
2013-02-15 05:42:00,53.0,23.0,30.25,South,177,7.0,10.0,31,0.00,,,0.00,0.000000,,2013-02-15 13:42:00,
2013-02-15 05:52:00,53.0,23.0,30.25,South,177,7.0,10.0,31,0.00,,,0.00,0.000000,,2013-02-15 13:52:00,
2013-02-15 06:01:00,53.0,23.0,30.25,South,177,7.0,10.0,31,0.00,,,0.00,0.000000,,2013-02-15 14:01:00,
2013-02-15 06:11:00,53.0,23.0,30.25,South,177,7.0,10.0,31,0.00,,,0.00,0.000000,,2013-02-15 14:11:00,
2013-02-15 06:42:00,49.0,36.0,30.25,WNW,283,3.0,8.0,60,0.00,,,0.00,0.000000,,2013-02-15 14:42:00,
2013-02-15 06:52:00,49.0,36.0,30.25,WNW,283,3.0,8.0,60,0.00,,,0.00,0.000000,,2013-02-15 14:52:00,
2013-02-15 07:01:00,49.0,36.0,30.25,WNW,283,3.0,8.0,60,0.00,,,0.00,0.000000,,2013-02-15 15:01:00,
2013-02-15 07:11:00,49.0,36.0,30.25,WNW,283,3.0,8.0,60,0.00,,,0.00,0.000000,,2013-02-15 15:11:00,
2013-02-15 07:42:00,53.0,17.0,30.26,NNW,347,7.0,11.0,24,0.00,,,0.00,0.000000,,2013-02-15 15:42:00,
2013-02-15 07:52:00,53.0,17.0,30.26,NNW,347,7.0,11.0,24,0.00,,,0.00,0.000000,,2013-02-15 15:52:00,
2013-02-15 08:01:00,53.0,17.0,30.26,NNW,347,7.0,11.0,24,0.00,,,0.00,0.000000,,2013-02-15 16:01:00,
2013-02-15 08:43:00,57.0,22.0,30.28,South,172,3.0,11.0,25,0.00,,,0.00,0.000000,,2013-02-15 16:43:00,
2013-02-15 08:52:00,57.0,22.0,30.28,South,172,3.0,11.0,25,0.00,,,0.00,0.000000,,2013-02-15 16:52:00,
2013-02-15 09:01:00,57.0,22.0,30.28,South,172,3.0,11.0,25,0.00,,,0.00,0.000000,,2013-02-15 17:01:00,
2013-02-15 09:11:00,57.0,22.0,30.28,South,172,3.0,11.0,25,0.00,,,0.00,0.000000,,2013-02-15 17:11:00,
2013-02-15 09:32:00,58.0,25.0,30.30,South,180,4.0,6.0,28,0.00,,,-99.99,95.000000,,2013-02-15 17:32:00,
2013-02-15 09:42:00,58.0,25.0,30.30,South,180,4.0,6.0,28,0.00,,,-99.99,95.000000,,2013-02-15 17:42:00,
2013-02-15 09:52:00,58.0,25.0,30.30,South,180,4.0,6.0,28,0.00,,,-99.99,95.000000,,2013-02-15 17:52:00,
2013-02-15 10:01:00,58.0,25.0,30.30,South,180,4.0,6.0,28,0.00,,,-99.99,95.000000,,2013-02-15 18:01:00,
2013-02-15 10:11:00,58.0,25.0,30.30,South,180,4.0,6.0,28,0.00,,,-99.99,95.000000,,2013-02-15 18:11:00,
2013-02-15 10:42:00,61.0,25.0,30.30,WSW,241,5.0,9.0,25,0.00,,,0.00,304.000000,,2013-02-15 18:42:00,
2013-02-15 10:52:00,61.0,25.0,30.30,WSW,241,5.0,9.0,25,0.00,,,0.00,304.000000,,2013-02-15 18:52:00,
2013-02-15 11:01:00,61.0,25.0,30.30,WSW,241,5.0,9.0,25,0.00,,,0.00,304.000000,,2013-02-15 19:01:00,
2013-02-15 11:11:00,61.0,25.0,30.30,WSW,241,5.0,9.0,25,0.00,,,0.00,304.000000,,2013-02-15 19:11:00,
2013-02-15 11:42:00,59.0,24.0,30.32,South,183,5.0,10.0,26,0.00,,,0.00,496.000000,,2013-02-15 19:42:00,
2013-02-15 11:52:00,59.0,24.0,30.32,South,183,5.0,10.0,26,0.00,,,0.00,496.000000,,2013-02-15 19:52:00,
2013-02-15 12:01:00,59.0,24.0,30.32,South,183,5.0,10.0,26,0.00,,,0.00,496.000000,,2013-02-15 20:01:00,
2013-02-15 12:42:00,62.0,32.0,30.31,SSW,200,5.0,11.0,32,0.00,,,0.00,645.000000,,2013-02-15 20:42:00,
2013-02-15 12:52:00,62.0,32.0,30.31,SSW,200,5.0,11.0,32,0.00,,,0.00,645.000000,,2013-02-15 20:52:00,
2013-02-15 13:01:00,62.0,32.0,30.31,SSW,200,5.0,11.0,32,0.00,,,0.00,645.000000,,2013-02-15 21:01:00,
2013-02-15 13:42:00,64.0,28.0,30.30,ENE,73,2.0,11.0,26,-99.99,,,0.00,734.000000,,2013-02-15 21:42:00,
2013-02-15 13:52:00,64.0,28.0,30.30,ENE,73,2.0,11.0,26,-99.99,,,0.00,734.000000,,2013-02-15 21:52:00,
2013-02-15 14:02:00,64.0,28.0,30.30,ENE,73,2.0,11.0,26,-99.99,,,0.00,734.000000,,2013-02-15 22:02:00,
2013-02-15 14:11:00,64.0,28.0,30.30,ENE,73,2.0,11.0,26,-99.99,,,0.00,734.000000,,2013-02-15 22:11:00,
2013-02-15 14:42:00,62.0,37.0,30.29,North,2,2.0,9.0,39,-99.99,,,0.00,756.000000,,2013-02-15 22:42:00,
2013-02-15 14:52:00,62.0,37.0,30.29,North,2,2.0,9.0,39,-99.99,,,0.00,756.000000,,2013-02-15 22:52:00,
2013-02-15 15:02:00,62.0,37.0,30.29,North,2,2.0,9.0,39,-99.99,,,0.00,756.000000,,2013-02-15 23:02:00,
2013-02-15 15:11:00,62.0,37.0,30.29,North,2,2.0,9.0,39,-99.99,,,0.00,756.000000,,2013-02-15 23:11:00,
2013-02-15 15:32:00,61.0,23.0,30.29,NW,322,2.0,9.0,23,0.00,,,0.00,715.000000,,2013-02-15 23:32:00,
2013-02-15 15:42:00,61.0,23.0,30.29,NW,322,2.0,9.0,23,0.00,,,0.00,715.000000,,2013-02-15 23:42:00,
2013-02-15 15:52:00,61.0,23.0,30.29,NW,322,2.0,9.0,23,0.00,,,0.00,715.000000,,2013-02-15 23:52:00,
2013-02-15 16:02:00,61.0,23.0,30.29,NW,322,2.0,9.0,23,0.00,,,0.00,715.000000,,2013-02-16 00:02:00,
2013-02-15 16:42:00,61.0,24.0,30.29,SSE,164,3.0,8.0,24,0.00,,,0.00,607.000000,,2013-02-16 00:42:00,
2013-02-15 16:52:00,61.0,24.0,30.29,SSE,164,3.0,8.0,24,0.00,,,0.00,607.000000,,2013-02-16 00:52:00,
2013-02-15 17:02:00,61.0,24.0,30.29,SSE,164,3.0,8.0,24,0.00,,,0.00,607.000000,,2013-02-16 01:02:00,
2013-02-15 17:42:00,58.0,17.0,30.29,WNW,283,7.0,12.0,20,0.00,,,0.00,445.000000,,2013-02-16 01:42:00,
2013-02-15 17:52:00,58.0,17.0,30.29,WNW,283,7.0,12.0,20,0.00,,,0.00,445.000000,,2013-02-16 01:52:00,
2013-02-15 18:01:00,58.0,17.0,30.29,WNW,283,7.0,12.0,20,0.00,,,0.00,445.000000,,2013-02-16 02:01:00,
2013-02-15 18:42:00,57.0,14.0,30.28,WNW,293,11.0,20.0,18,0.00,,,0.00,247.000000,,2013-02-16 02:42:00,
2013-02-15 18:52:00,57.0,14.0,30.28,WNW,293,11.0,20.0,18,0.00,,,0.00,247.000000,,2013-02-16 02:52:00,
2013-02-15 19:01:00,57.0,14.0,30.28,WNW,293,11.0,20.0,18,0.00,,,0.00,247.000000,,2013-02-16 03:01:00,
2013-02-15 19:42:00,56.0,13.0,30.29,NW,314,16.0,21.0,18,0.00,,,0.00,48.000000,,2013-02-16 03:42:00,
2013-02-15 19:52:00,56.0,13.0,30.29,NW,314,16.0,21.0,18,0.00,,,0.00,48.000000,,2013-02-16 03:52:00,
2013-02-15 20:01:00,56.0,13.0,30.29,NW,314,16.0,21.0,18,0.00,,,0.00,48.000000,,2013-02-16 04:01:00,
2013-02-15 20:42:00,58.0,7.0,30.30,NW,324,14.0,18.0,13,0.00,,,0.00,0.000000,,2013-02-16 04:42:00,
2013-02-15 20:52:00,58.0,7.0,30.30,NW,324,14.0,18.0,13,0.00,,,0.00,0.000000,,2013-02-16 04:52:00,
2013-02-15 21:01:00,58.0,7.0,30.30,NW,324,14.0,18.0,13,0.00,,,0.00,0.000000,,2013-02-16 05:01:00,
2013-02-15 21:42:00,58.0,7.0,30.30,NNW,346,11.0,15.0,13,0.00,,,0.00,0.000000,,2013-02-16 05:42:00,
2013-02-15 21:52:00,58.0,7.0,30.30,NNW,346,11.0,15.0,13,0.00,,,0.00,0.000000,,2013-02-16 05:52:00,
2013-02-15 22:01:00,58.0,7.0,30.30,NNW,346,11.0,15.0,13,0.00,,,0.00,0.000000,,2013-02-16 06:01:00,
2013-02-15 22:42:00,56.0,12.0,30.31,NNE,16,9.0,13.0,17,0.00,,,0.00,0.000000,,2013-02-16 06:42:00,
2013-02-15 22:52:00,56.0,12.0,30.31,NNE,16,9.0,13.0,17,0.00,,,0.00,0.000000,,2013-02-16 06:52:00,
2013-02-15 23:02:00,56.0,12.0,30.31,NNE,16,9.0,13.0,17,0.00,,,0.00,0.000000,,2013-02-16 07:02:00,
2013-02-15 23:42:00,56.0,9.0,30.31,ENE,67,8.0,13.0,15,0.00,,,-99.99,0.000000,,2013-02-16 07:42:00,
2013-02-15 23:53:00,56.0,9.0,30.31,ENE,67,8.0,13.0,15,0.00,,,-99.99,0.000000,,2013-02-16 07:53:00,